sensor_id;sensor_type;location;lat;lon;timestamp;temperature;humidity
19610;DHT22;9952;47.122;-1.638;2024-03-02T00:02:08;8.00;99.90
19610;DHT22;9952;47.122;-1.638;2024-03-02T00:06:54;8.00;99.90
19610;DHT22;9952;47.122;-1.638;2024-03-02T00:11:37;7.90;99.90
19610;DHT22;9952;47.122;-1.638;2024-03-02T00:16:19;7.70;99.90
19610;DHT22;9952;47.122;-1.638;2024-03-02T00:21:00;7.50;99.90
19610;DHT22;9952;47.122;-1.638;2024-03-02T00:25:51;7.40;99.90
19610;DHT22;9952;47.122;-1.638;2024-03-02T00:30:59;7.40;99.90
19610;DHT22;9952;47.122;-1.638;2024-03-02T00:35:44;7.40;99.90
19610;DHT22;9952;47.122;-1.638;2024-03-02T00:40:27;7.30;99.90
19610;DHT22;9952;47.122;-1.638;2024-03-02T00:45:10;7.30;99.90
19610;DHT22;9952;47.122;-1.638;2024-03-02T00:49:50;7.40;99.90
19610;DHT22;9952;47.122;-1.638;2024-03-02T00:54:31;7.40;99.90
19610;DHT22;9952;47.122;-1.638;2024-03-02T00:59:11;7.30;99.90
19610;DHT22;9952;47.122;-1.638;2024-03-02T01:03:52;7.40;99.90
19610;DHT22;9952;47.122;-1.638;2024-03-02T01:08:35;7.50;99.90
19610;DHT22;9952;47.122;-1.638;2024-03-02T01:13:15;7.40;99.90
19610;DHT22;9952;47.122;-1.638;2024-03-02T01:17:56;7.40;99.90
19610;DHT22;9952;47.122;-1.638;2024-03-02T01:22:36;7.40;99.90
19610;DHT22;9952;47.122;-1.638;2024-03-02T01:27:17;7.40;99.90
19610;DHT22;9952;47.122;-1.638;2024-03-02T01:31:59;7.40;99.90
19610;DHT22;9952;47.122;-1.638;2024-03-02T01:36:40;7.30;99.90
19610;DHT22;9952;47.122;-1.638;2024-03-02T01:41:20;7.30;99.90
19610;DHT22;9952;47.122;-1.638;2024-03-02T01:46:01;7.30;99.90
19610;DHT22;9952;47.122;-1.638;2024-03-02T01:50:42;7.20;99.90
19610;DHT22;9952;47.122;-1.638;2024-03-02T01:55:23;7.20;99.90
19610;DHT22;9952;47.122;-1.638;2024-03-02T02:00:04;7.20;99.90
19610;DHT22;9952;47.122;-1.638;2024-03-02T02:04:46;7.30;99.90
19610;DHT22;9952;47.122;-1.638;2024-03-02T02:09:26;7.20;99.90
19610;DHT22;9952;47.122;-1.638;2024-03-02T02:14:07;7.20;99.90
19610;DHT22;9952;47.122;-1.638;2024-03-02T02:18:47;7.20;99.90
19610;DHT22;9952;47.122;-1.638;2024-03-02T02:23:28;7.20;99.90
19610;DHT22;9952;47.122;-1.638;2024-03-02T02:28:09;7.20;99.90
19610;DHT22;9952;47.122;-1.638;2024-03-02T02:32:50;7.20;99.90
19610;DHT22;9952;47.122;-1.638;2024-03-02T02:37:31;7.30;99.90
19610;DHT22;9952;47.122;-1.638;2024-03-02T02:42:11;7.40;99.90
19610;DHT22;9952;47.122;-1.638;2024-03-02T02:46:52;7.50;99.90
19610;DHT22;9952;47.122;-1.638;2024-03-02T02:51:33;7.60;99.90
19610;DHT22;9952;47.122;-1.638;2024-03-02T02:56:13;7.50;99.90
19610;DHT22;9952;47.122;-1.638;2024-03-02T03:00:54;7.50;99.90
19610;DHT22;9952;47.122;-1.638;2024-03-02T03:05:37;7.50;99.90
19610;DHT22;9952;47.122;-1.638;2024-03-02T03:10:17;7.60;99.90
19610;DHT22;9952;47.122;-1.638;2024-03-02T03:14:59;7.60;99.90
19610;DHT22;9952;47.122;-1.638;2024-03-02T03:19:40;7.50;99.90
19610;DHT22;9952;47.122;-1.638;2024-03-02T03:24:21;7.50;99.90
19610;DHT22;9952;47.122;-1.638;2024-03-02T03:29:01;7.50;99.90
19610;DHT22;9952;47.122;-1.638;2024-03-02T03:33:42;7.40;99.90
19610;DHT22;9952;47.122;-1.638;2024-03-02T03:38:23;7.40;99.90
19610;DHT22;9952;47.122;-1.638;2024-03-02T03:43:04;7.40;99.90
19610;DHT22;9952;47.122;-1.638;2024-03-02T03:47:44;7.50;99.90
19610;DHT22;9952;47.122;-1.638;2024-03-02T03:52:25;7.50;99.90
19610;DHT22;9952;47.122;-1.638;2024-03-02T03:57:05;7.60;99.90
19610;DHT22;9952;47.122;-1.638;2024-03-02T04:01:46;7.70;99.90
19610;DHT22;9952;47.122;-1.638;2024-03-02T04:06:27;7.70;99.90
19610;DHT22;9952;47.122;-1.638;2024-03-02T04:11:08;7.60;99.90
19610;DHT22;9952;47.122;-1.638;2024-03-02T04:15:48;7.50;99.90
19610;DHT22;9952;47.122;-1.638;2024-03-02T04:20:29;7.50;99.90
19610;DHT22;9952;47.122;-1.638;2024-03-02T04:25:10;7.50;99.90
19610;DHT22;9952;47.122;-1.638;2024-03-02T04:29:51;7.60;99.90
19610;DHT22;9952;47.122;-1.638;2024-03-02T04:34:31;7.60;99.90
19610;DHT22;9952;47.122;-1.638;2024-03-02T04:39:12;7.60;99.90
19610;DHT22;9952;47.122;-1.638;2024-03-02T04:43:53;7.60;99.90
19610;DHT22;9952;47.122;-1.638;2024-03-02T04:48:33;7.60;99.90
19610;DHT22;9952;47.122;-1.638;2024-03-02T04:53:14;7.60;99.90
19610;DHT22;9952;47.122;-1.638;2024-03-02T04:57:55;7.60;99.90
19610;DHT22;9952;47.122;-1.638;2024-03-02T05:02:36;7.60;99.90
19610;DHT22;9952;47.122;-1.638;2024-03-02T05:07:17;7.50;99.90
19610;DHT22;9952;47.122;-1.638;2024-03-02T05:11:57;7.50;99.90
19610;DHT22;9952;47.122;-1.638;2024-03-02T05:17:03;7.50;99.90
19610;DHT22;9952;47.122;-1.638;2024-03-02T05:21:44;7.40;99.90
19610;DHT22;9952;47.122;-1.638;2024-03-02T05:26:25;7.40;99.90
19610;DHT22;9952;47.122;-1.638;2024-03-02T05:31:05;7.30;99.90
19610;DHT22;9952;47.122;-1.638;2024-03-02T05:35:47;7.30;99.90
19610;DHT22;9952;47.122;-1.638;2024-03-02T05:40:27;7.30;99.90
19610;DHT22;9952;47.122;-1.638;2024-03-02T05:45:08;7.30;99.90
19610;DHT22;9952;47.122;-1.638;2024-03-02T05:49:49;7.20;99.90
19610;DHT22;9952;47.122;-1.638;2024-03-02T05:54:29;7.20;99.90
19610;DHT22;9952;47.122;-1.638;2024-03-02T05:59:10;7.10;99.90
19610;DHT22;9952;47.122;-1.638;2024-03-02T06:03:54;7.10;99.90
19610;DHT22;9952;47.122;-1.638;2024-03-02T06:08:35;7.10;99.90
19610;DHT22;9952;47.122;-1.638;2024-03-02T06:13:16;7.10;99.90
19610;DHT22;9952;47.122;-1.638;2024-03-02T06:17:56;7.10;99.90
19610;DHT22;9952;47.122;-1.638;2024-03-02T06:22:37;7.10;99.90
19610;DHT22;9952;47.122;-1.638;2024-03-02T06:27:18;7.20;99.90
19610;DHT22;9952;47.122;-1.638;2024-03-02T06:31:58;7.10;99.90
19610;DHT22;9952;47.122;-1.638;2024-03-02T06:36:39;7.10;99.90
19610;DHT22;9952;47.122;-1.638;2024-03-02T06:41:21;7.10;99.90
19610;DHT22;9952;47.122;-1.638;2024-03-02T06:46:02;7.00;99.90
19610;DHT22;9952;47.122;-1.638;2024-03-02T06:50:42;7.00;99.90
19610;DHT22;9952;47.122;-1.638;2024-03-02T06:55:23;7.00;99.90
19610;DHT22;9952;47.122;-1.638;2024-03-02T07:00:07;7.00;99.90
19610;DHT22;9952;47.122;-1.638;2024-03-02T07:04:49;7.00;99.90
19610;DHT22;9952;47.122;-1.638;2024-03-02T07:09:31;7.00;99.90
19610;DHT22;9952;47.122;-1.638;2024-03-02T07:14:12;7.10;99.90
19610;DHT22;9952;47.122;-1.638;2024-03-02T07:18:53;7.10;99.90
19610;DHT22;9952;47.122;-1.638;2024-03-02T07:23:35;7.20;99.90
19610;DHT22;9952;47.122;-1.638;2024-03-02T07:28:16;7.30;99.90
19610;DHT22;9952;47.122;-1.638;2024-03-02T07:32:57;7.30;99.90
19610;DHT22;9952;47.122;-1.638;2024-03-02T07:37:37;7.40;99.90
19610;DHT22;9952;47.122;-1.638;2024-03-02T07:42:18;7.50;99.90
19610;DHT22;9952;47.122;-1.638;2024-03-02T07:46:59;7.50;99.90
19610;DHT22;9952;47.122;-1.638;2024-03-02T07:51:39;7.60;99.90
19610;DHT22;9952;47.122;-1.638;2024-03-02T07:56:20;7.60;99.90
19610;DHT22;9952;47.122;-1.638;2024-03-02T08:01:02;7.60;99.90
19610;DHT22;9952;47.122;-1.638;2024-03-02T08:05:44;7.60;99.90
19610;DHT22;9952;47.122;-1.638;2024-03-02T08:10:25;7.60;99.90
19610;DHT22;9952;47.122;-1.638;2024-03-02T08:15:06;7.60;99.90
19610;DHT22;9952;47.122;-1.638;2024-03-02T08:19:47;7.70;99.90
19610;DHT22;9952;47.122;-1.638;2024-03-02T08:24:28;7.70;99.90
19610;DHT22;9952;47.122;-1.638;2024-03-02T08:29:09;7.70;99.90
19610;DHT22;9952;47.122;-1.638;2024-03-02T08:33:50;7.70;99.90
19610;DHT22;9952;47.122;-1.638;2024-03-02T08:38:30;7.80;99.90
19610;DHT22;9952;47.122;-1.638;2024-03-02T08:43:11;7.80;99.90
19610;DHT22;9952;47.122;-1.638;2024-03-02T08:47:52;7.90;99.90
19610;DHT22;9952;47.122;-1.638;2024-03-02T08:52:33;7.90;99.90
19610;DHT22;9952;47.122;-1.638;2024-03-02T08:57:13;8.00;99.90
19610;DHT22;9952;47.122;-1.638;2024-03-02T09:01:54;8.00;99.90
19610;DHT22;9952;47.122;-1.638;2024-03-02T09:06:35;8.00;99.90
19610;DHT22;9952;47.122;-1.638;2024-03-02T09:11:17;8.10;99.90
19610;DHT22;9952;47.122;-1.638;2024-03-02T09:15:58;8.10;99.90
19610;DHT22;9952;47.122;-1.638;2024-03-02T09:20:38;8.20;99.90
19610;DHT22;9952;47.122;-1.638;2024-03-02T09:25:19;8.30;99.90
19610;DHT22;9952;47.122;-1.638;2024-03-02T09:30:00;8.40;99.90
19610;DHT22;9952;47.122;-1.638;2024-03-02T09:34:40;8.50;99.90
19610;DHT22;9952;47.122;-1.638;2024-03-02T09:39:21;8.60;99.90
19610;DHT22;9952;47.122;-1.638;2024-03-02T09:44:03;8.70;99.90
19610;DHT22;9952;47.122;-1.638;2024-03-02T09:48:46;8.80;99.90
19610;DHT22;9952;47.122;-1.638;2024-03-02T09:53:31;8.90;99.90
19610;DHT22;9952;47.122;-1.638;2024-03-02T09:58:12;9.00;99.90
19610;DHT22;9952;47.122;-1.638;2024-03-02T10:02:53;9.10;99.90
19610;DHT22;9952;47.122;-1.638;2024-03-02T10:07:35;9.10;99.90
19610;DHT22;9952;47.122;-1.638;2024-03-02T10:12:16;9.10;99.90
19610;DHT22;9952;47.122;-1.638;2024-03-02T10:17:02;9.20;99.90
19610;DHT22;9952;47.122;-1.638;2024-03-02T10:21:45;9.20;99.90
19610;DHT22;9952;47.122;-1.638;2024-03-02T10:26:26;9.20;99.90
19610;DHT22;9952;47.122;-1.638;2024-03-02T10:31:06;9.30;99.90
19610;DHT22;9952;47.122;-1.638;2024-03-02T10:35:49;9.30;99.90
19610;DHT22;9952;47.122;-1.638;2024-03-02T10:40:30;9.40;99.90
19610;DHT22;9952;47.122;-1.638;2024-03-02T10:45:12;9.50;99.90
19610;DHT22;9952;47.122;-1.638;2024-03-02T10:49:55;9.60;99.90
19610;DHT22;9952;47.122;-1.638;2024-03-02T10:54:37;9.70;99.90
19610;DHT22;9952;47.122;-1.638;2024-03-02T10:59:27;9.80;99.90
19610;DHT22;9952;47.122;-1.638;2024-03-02T11:04:13;9.90;99.90
19610;DHT22;9952;47.122;-1.638;2024-03-02T11:08:57;10.00;99.90
19610;DHT22;9952;47.122;-1.638;2024-03-02T11:13:42;10.00;99.90
19610;DHT22;9952;47.122;-1.638;2024-03-02T11:18:29;10.10;99.90
19610;DHT22;9952;47.122;-1.638;2024-03-02T11:23:10;10.10;99.90
19610;DHT22;9952;47.122;-1.638;2024-03-02T11:32:34;10.20;99.90
19610;DHT22;9952;47.122;-1.638;2024-03-02T11:37:19;10.30;99.90
19610;DHT22;9952;47.122;-1.638;2024-03-02T11:42:03;10.40;99.90
19610;DHT22;9952;47.122;-1.638;2024-03-02T11:46:46;10.30;99.90
19610;DHT22;9952;47.122;-1.638;2024-03-02T11:51:33;10.30;99.90
19610;DHT22;9952;47.122;-1.638;2024-03-02T11:56:15;10.30;99.90
19610;DHT22;9952;47.122;-1.638;2024-03-02T12:00:57;10.30;99.90
19610;DHT22;9952;47.122;-1.638;2024-03-02T12:05:38;10.30;99.90
19610;DHT22;9952;47.122;-1.638;2024-03-02T12:10:19;10.30;99.90
19610;DHT22;9952;47.122;-1.638;2024-03-02T12:15:00;10.30;99.90
19610;DHT22;9952;47.122;-1.638;2024-03-02T12:19:41;10.40;99.90
19610;DHT22;9952;47.122;-1.638;2024-03-02T12:24:21;10.50;99.90
19610;DHT22;9952;47.122;-1.638;2024-03-02T12:29:02;10.50;99.90
19610;DHT22;9952;47.122;-1.638;2024-03-02T12:33:43;10.60;99.90
19610;DHT22;9952;47.122;-1.638;2024-03-02T12:38:24;10.80;99.90
19610;DHT22;9952;47.122;-1.638;2024-03-02T12:43:06;10.90;99.90
19610;DHT22;9952;47.122;-1.638;2024-03-02T12:47:47;11.10;99.90
19610;DHT22;9952;47.122;-1.638;2024-03-02T12:52:28;11.20;99.90
19610;DHT22;9952;47.122;-1.638;2024-03-02T12:57:08;11.20;99.90
19610;DHT22;9952;47.122;-1.638;2024-03-02T13:01:53;11.30;99.90
19610;DHT22;9952;47.122;-1.638;2024-03-02T13:06:34;11.20;99.90
19610;DHT22;9952;47.122;-1.638;2024-03-02T13:11:16;10.90;99.90
19610;DHT22;9952;47.122;-1.638;2024-03-02T13:15:57;11.00;99.90
19610;DHT22;9952;47.122;-1.638;2024-03-02T13:20:37;11.20;99.90
19610;DHT22;9952;47.122;-1.638;2024-03-02T13:25:19;11.40;99.90
19610;DHT22;9952;47.122;-1.638;2024-03-02T13:30:01;11.60;99.90
19610;DHT22;9952;47.122;-1.638;2024-03-02T13:34:42;11.40;99.90
19610;DHT22;9952;47.122;-1.638;2024-03-02T13:39:23;10.80;99.90
19610;DHT22;9952;47.122;-1.638;2024-03-02T13:44:04;10.50;99.90
19610;DHT22;9952;47.122;-1.638;2024-03-02T13:48:44;10.20;99.90
19610;DHT22;9952;47.122;-1.638;2024-03-02T13:53:25;10.20;99.90
19610;DHT22;9952;47.122;-1.638;2024-03-02T13:58:06;10.10;99.90
19610;DHT22;9952;47.122;-1.638;2024-03-02T14:02:47;10.20;99.90
19610;DHT22;9952;47.122;-1.638;2024-03-02T14:07:30;10.30;99.90
19610;DHT22;9952;47.122;-1.638;2024-03-02T14:12:10;10.40;99.90
19610;DHT22;9952;47.122;-1.638;2024-03-02T14:16:54;10.40;99.90
19610;DHT22;9952;47.122;-1.638;2024-03-02T14:21:36;10.50;99.90
19610;DHT22;9952;47.122;-1.638;2024-03-02T14:26:16;10.60;99.90
19610;DHT22;9952;47.122;-1.638;2024-03-02T14:30:58;10.80;99.90
19610;DHT22;9952;47.122;-1.638;2024-03-02T14:35:41;11.10;99.90
19610;DHT22;9952;47.122;-1.638;2024-03-02T14:40:21;11.50;99.90
19610;DHT22;9952;47.122;-1.638;2024-03-02T14:45:03;11.60;99.90
19610;DHT22;9952;47.122;-1.638;2024-03-02T14:49:45;11.50;99.90
19610;DHT22;9952;47.122;-1.638;2024-03-02T14:54:25;11.80;99.90
19610;DHT22;9952;47.122;-1.638;2024-03-02T14:59:06;11.90;99.90
19610;DHT22;9952;47.122;-1.638;2024-03-02T15:03:47;11.80;99.90
19610;DHT22;9952;47.122;-1.638;2024-03-02T15:08:27;11.80;99.90
19610;DHT22;9952;47.122;-1.638;2024-03-02T15:13:08;11.90;99.90
19610;DHT22;9952;47.122;-1.638;2024-03-02T15:17:49;12.00;99.90
19610;DHT22;9952;47.122;-1.638;2024-03-02T15:22:30;12.00;99.90
19610;DHT22;9952;47.122;-1.638;2024-03-02T15:27:11;11.90;99.90
19610;DHT22;9952;47.122;-1.638;2024-03-02T15:31:51;11.90;99.90
19610;DHT22;9952;47.122;-1.638;2024-03-02T15:36:32;11.90;99.90
19610;DHT22;9952;47.122;-1.638;2024-03-02T15:41:13;11.70;99.90
19610;DHT22;9952;47.122;-1.638;2024-03-02T15:45:53;11.80;99.90
19610;DHT22;9952;47.122;-1.638;2024-03-02T15:50:34;12.00;99.90
19610;DHT22;9952;47.122;-1.638;2024-03-02T15:55:17;11.80;99.90
19610;DHT22;9952;47.122;-1.638;2024-03-02T15:59:58;11.90;99.90
19610;DHT22;9952;47.122;-1.638;2024-03-02T16:04:38;11.90;99.90
19610;DHT22;9952;47.122;-1.638;2024-03-02T16:09:19;11.70;99.90
19610;DHT22;9952;47.122;-1.638;2024-03-02T16:13:59;11.60;99.90
19610;DHT22;9952;47.122;-1.638;2024-03-02T16:18:40;11.40;99.90
19610;DHT22;9952;47.122;-1.638;2024-03-02T16:23:22;11.20;99.90
19610;DHT22;9952;47.122;-1.638;2024-03-02T16:28:03;11.20;99.90
19610;DHT22;9952;47.122;-1.638;2024-03-02T16:32:44;11.20;99.90
19610;DHT22;9952;47.122;-1.638;2024-03-02T16:37:25;11.20;99.90
19610;DHT22;9952;47.122;-1.638;2024-03-02T16:42:06;11.40;99.90
19610;DHT22;9952;47.122;-1.638;2024-03-02T16:46:47;11.50;99.90
19610;DHT22;9952;47.122;-1.638;2024-03-02T16:51:28;11.50;99.90
19610;DHT22;9952;47.122;-1.638;2024-03-02T16:56:09;11.60;99.90
19610;DHT22;9952;47.122;-1.638;2024-03-02T17:00:50;11.60;99.90
19610;DHT22;9952;47.122;-1.638;2024-03-02T17:05:30;11.40;99.90
19610;DHT22;9952;47.122;-1.638;2024-03-02T17:10:11;11.20;99.90
19610;DHT22;9952;47.122;-1.638;2024-03-02T17:14:52;10.80;99.90
19610;DHT22;9952;47.122;-1.638;2024-03-02T17:19:32;10.60;99.90
19610;DHT22;9952;47.122;-1.638;2024-03-02T17:24:13;10.20;99.90
19610;DHT22;9952;47.122;-1.638;2024-03-02T17:28:54;10.10;99.90
19610;DHT22;9952;47.122;-1.638;2024-03-02T17:33:35;9.90;99.90
19610;DHT22;9952;47.122;-1.638;2024-03-02T17:38:16;9.90;99.90
19610;DHT22;9952;47.122;-1.638;2024-03-02T17:42:57;9.70;99.90
19610;DHT22;9952;47.122;-1.638;2024-03-02T17:47:38;9.60;99.90
19610;DHT22;9952;47.122;-1.638;2024-03-02T17:52:18;9.40;99.90
19610;DHT22;9952;47.122;-1.638;2024-03-02T17:56:59;9.40;99.90
19610;DHT22;9952;47.122;-1.638;2024-03-02T18:01:40;9.40;99.90
19610;DHT22;9952;47.122;-1.638;2024-03-02T18:06:20;9.30;99.90
19610;DHT22;9952;47.122;-1.638;2024-03-02T18:11:01;9.30;99.90
19610;DHT22;9952;47.122;-1.638;2024-03-02T18:15:41;9.20;99.90
19610;DHT22;9952;47.122;-1.638;2024-03-02T18:20:22;9.10;99.90
19610;DHT22;9952;47.122;-1.638;2024-03-02T18:25:03;9.00;99.90
19610;DHT22;9952;47.122;-1.638;2024-03-02T18:29:44;8.90;99.90
19610;DHT22;9952;47.122;-1.638;2024-03-02T18:34:25;8.70;99.90
19610;DHT22;9952;47.122;-1.638;2024-03-02T18:39:05;8.70;99.90
19610;DHT22;9952;47.122;-1.638;2024-03-02T18:43:47;8.60;99.90
19610;DHT22;9952;47.122;-1.638;2024-03-02T18:48:27;8.50;99.90
19610;DHT22;9952;47.122;-1.638;2024-03-02T18:53:08;8.40;99.90
19610;DHT22;9952;47.122;-1.638;2024-03-02T18:57:48;8.30;99.90
19610;DHT22;9952;47.122;-1.638;2024-03-02T19:02:29;8.10;99.90
19610;DHT22;9952;47.122;-1.638;2024-03-02T19:07:10;8.00;99.90
19610;DHT22;9952;47.122;-1.638;2024-03-02T19:11:50;7.90;99.90
19610;DHT22;9952;47.122;-1.638;2024-03-02T19:16:31;7.80;99.90
19610;DHT22;9952;47.122;-1.638;2024-03-02T19:21:12;7.60;99.90
19610;DHT22;9952;47.122;-1.638;2024-03-02T19:25:53;7.50;99.90
19610;DHT22;9952;47.122;-1.638;2024-03-02T19:30:34;7.40;99.90
19610;DHT22;9952;47.122;-1.638;2024-03-02T19:35:16;7.30;99.90
19610;DHT22;9952;47.122;-1.638;2024-03-02T19:39:57;7.30;99.90
19610;DHT22;9952;47.122;-1.638;2024-03-02T19:44:37;7.20;99.90
19610;DHT22;9952;47.122;-1.638;2024-03-02T19:49:18;7.10;99.90
19610;DHT22;9952;47.122;-1.638;2024-03-02T19:53:59;6.90;99.90
19610;DHT22;9952;47.122;-1.638;2024-03-02T19:58:40;6.80;99.90
19610;DHT22;9952;47.122;-1.638;2024-03-02T20:03:21;6.60;99.90
19610;DHT22;9952;47.122;-1.638;2024-03-02T20:08:03;6.60;99.90
19610;DHT22;9952;47.122;-1.638;2024-03-02T20:12:44;6.50;99.90
19610;DHT22;9952;47.122;-1.638;2024-03-02T20:17:25;6.40;99.90
19610;DHT22;9952;47.122;-1.638;2024-03-02T20:22:06;6.40;99.90
19610;DHT22;9952;47.122;-1.638;2024-03-02T20:26:47;6.30;99.90
19610;DHT22;9952;47.122;-1.638;2024-03-02T20:31:28;6.20;99.90
19610;DHT22;9952;47.122;-1.638;2024-03-02T20:36:15;6.10;99.90
19610;DHT22;9952;47.122;-1.638;2024-03-02T20:40:55;6.00;99.90
19610;DHT22;9952;47.122;-1.638;2024-03-02T20:45:36;6.00;99.90
19610;DHT22;9952;47.122;-1.638;2024-03-02T20:50:17;5.90;99.90
19610;DHT22;9952;47.122;-1.638;2024-03-02T20:54:57;5.80;99.90
19610;DHT22;9952;47.122;-1.638;2024-03-02T20:59:39;5.80;99.90
19610;DHT22;9952;47.122;-1.638;2024-03-02T21:04:19;5.70;99.90
19610;DHT22;9952;47.122;-1.638;2024-03-02T21:09:00;5.60;99.90
19610;DHT22;9952;47.122;-1.638;2024-03-02T21:13:41;5.50;99.90
19610;DHT22;9952;47.122;-1.638;2024-03-02T21:18:25;5.40;99.90
19610;DHT22;9952;47.122;-1.638;2024-03-02T21:23:06;5.30;99.90
19610;DHT22;9952;47.122;-1.638;2024-03-02T21:27:51;5.20;99.90
19610;DHT22;9952;47.122;-1.638;2024-03-02T21:32:32;5.30;99.90
19610;DHT22;9952;47.122;-1.638;2024-03-02T21:37:13;5.40;99.90
19610;DHT22;9952;47.122;-1.638;2024-03-02T21:41:54;5.60;99.90
19610;DHT22;9952;47.122;-1.638;2024-03-02T21:46:35;5.70;99.90
19610;DHT22;9952;47.122;-1.638;2024-03-02T21:51:15;5.80;99.90
19610;DHT22;9952;47.122;-1.638;2024-03-02T21:55:56;5.80;99.90
19610;DHT22;9952;47.122;-1.638;2024-03-02T22:00:37;5.90;99.90
19610;DHT22;9952;47.122;-1.638;2024-03-02T22:05:18;6.00;99.90
19610;DHT22;9952;47.122;-1.638;2024-03-02T22:09:59;6.00;99.90
19610;DHT22;9952;47.122;-1.638;2024-03-02T22:14:40;6.10;99.90
19610;DHT22;9952;47.122;-1.638;2024-03-02T22:19:21;6.10;99.90
19610;DHT22;9952;47.122;-1.638;2024-03-02T22:24:01;6.10;99.90
19610;DHT22;9952;47.122;-1.638;2024-03-02T22:28:42;6.10;99.90
19610;DHT22;9952;47.122;-1.638;2024-03-02T22:33:23;6.10;99.90
19610;DHT22;9952;47.122;-1.638;2024-03-02T22:38:04;6.20;99.90
19610;DHT22;9952;47.122;-1.638;2024-03-02T22:42:44;6.20;99.90
19610;DHT22;9952;47.122;-1.638;2024-03-02T22:47:25;6.30;99.90
19610;DHT22;9952;47.122;-1.638;2024-03-02T22:52:06;6.30;99.90
19610;DHT22;9952;47.122;-1.638;2024-03-02T22:56:46;6.40;99.90
19610;DHT22;9952;47.122;-1.638;2024-03-02T23:01:27;6.40;99.90
19610;DHT22;9952;47.122;-1.638;2024-03-02T23:06:08;6.40;99.90
19610;DHT22;9952;47.122;-1.638;2024-03-02T23:10:49;6.50;99.90
19610;DHT22;9952;47.122;-1.638;2024-03-02T23:15:29;6.50;99.90
19610;DHT22;9952;47.122;-1.638;2024-03-02T23:20:10;6.60;99.90
19610;DHT22;9952;47.122;-1.638;2024-03-02T23:24:51;6.50;99.90
19610;DHT22;9952;47.122;-1.638;2024-03-02T23:29:32;6.60;99.90
19610;DHT22;9952;47.122;-1.638;2024-03-02T23:34:15;6.50;99.90
19610;DHT22;9952;47.122;-1.638;2024-03-02T23:38:58;6.50;99.90
19610;DHT22;9952;47.122;-1.638;2024-03-02T23:43:44;6.50;99.90
19610;DHT22;9952;47.122;-1.638;2024-03-02T23:48:25;6.50;99.90
19610;DHT22;9952;47.122;-1.638;2024-03-02T23:53:06;6.40;99.90
19610;DHT22;9952;47.122;-1.638;2024-03-02T23:57:46;6.30;99.90
